sensor_id;sensor_type;location;lat;lon;timestamp;pressure;altitude;pressure_sealevel;temperature;humidity
49567;BME280;35472;50.514;30.448;2022-07-22T00:00:58;99638.84;;;18.26;100.00
49567;BME280;35472;50.514;30.448;2022-07-22T00:03:23;99649.59;;;18.18;100.00
49567;BME280;35472;50.514;30.448;2022-07-22T00:05:49;99645.53;;;18.25;100.00
49567;BME280;35472;50.514;30.448;2022-07-22T00:08:14;99651.13;;;18.37;100.00
49567;BME280;35472;50.514;30.448;2022-07-22T00:10:40;99647.34;;;18.20;100.00
49567;BME280;35472;50.514;30.448;2022-07-22T00:13:06;99654.59;;;18.25;100.00
49567;BME280;35472;50.514;30.448;2022-07-22T00:15:32;99649.66;;;18.10;100.00
49567;BME280;35472;50.514;30.448;2022-07-22T00:17:57;99641.59;;;18.26;100.00
49567;BME280;35472;50.514;30.448;2022-07-22T00:20:22;99646.13;;;18.39;100.00
49567;BME280;35472;50.514;30.448;2022-07-22T00:22:48;99637.91;;;18.81;100.00
49567;BME280;35472;50.514;30.448;2022-07-22T00:25:13;99632.50;;;18.34;100.00
49567;BME280;35472;50.514;30.448;2022-07-22T00:27:39;99647.13;;;18.26;100.00
49567;BME280;35472;50.514;30.448;2022-07-22T00:30:05;99656.09;;;18.22;100.00
49567;BME280;35472;50.514;30.448;2022-07-22T00:32:30;99657.47;;;17.99;100.00
49567;BME280;35472;50.514;30.448;2022-07-22T00:34:56;99655.38;;;18.34;100.00
49567;BME280;35472;50.514;30.448;2022-07-22T00:37:21;99657.88;;;18.18;100.00
49567;BME280;35472;50.514;30.448;2022-07-22T00:39:47;99662.34;;;18.02;100.00
49567;BME280;35472;50.514;30.448;2022-07-22T00:42:15;99651.44;;;18.06;100.00
49567;BME280;35472;50.514;30.448;2022-07-22T00:44:41;99655.34;;;18.05;100.00
49567;BME280;35472;50.514;30.448;2022-07-22T00:47:06;99649.56;;;17.89;100.00
49567;BME280;35472;50.514;30.448;2022-07-22T00:49:32;99658.22;;;17.79;100.00
49567;BME280;35472;50.514;30.448;2022-07-22T00:51:57;99654.59;;;17.87;100.00
49567;BME280;35472;50.514;30.448;2022-07-22T00:54:23;99659.22;;;18.12;100.00
49567;BME280;35472;50.514;30.448;2022-07-22T00:56:49;99660.00;;;18.21;100.00
49567;BME280;35472;50.514;30.448;2022-07-22T00:59:15;99657.47;;;17.99;100.00
49567;BME280;35472;50.514;30.448;2022-07-22T01:01:40;99656.94;;;18.14;100.00
49567;BME280;35472;50.514;30.448;2022-07-22T01:04:06;99658.28;;;18.00;100.00
49567;BME280;35472;50.514;30.448;2022-07-22T01:06:32;99656.03;;;18.31;100.00
49567;BME280;35472;50.514;30.448;2022-07-22T01:08:58;99652.06;;;18.11;100.00
49567;BME280;35472;50.514;30.448;2022-07-22T01:11:24;99646.47;;;18.29;100.00
49567;BME280;35472;50.514;30.448;2022-07-22T01:13:50;99649.56;;;17.89;100.00
49567;BME280;35472;50.514;30.448;2022-07-22T01:16:17;99652.66;;;17.87;100.00
49567;BME280;35472;50.514;30.448;2022-07-22T01:18:43;99652.06;;;18.11;100.00
49567;BME280;35472;50.514;30.448;2022-07-22T01:21:10;99656.34;;;18.00;100.00
49567;BME280;35472;50.514;30.448;2022-07-22T01:23:36;99663.59;;;18.13;100.00
49567;BME280;35472;50.514;30.448;2022-07-22T01:26:03;99655.41;;;17.70;100.00
49567;BME280;35472;50.514;30.448;2022-07-22T01:28:29;99652.66;;;17.87;100.00
49567;BME280;35472;50.514;30.448;2022-07-22T01:30:55;99649.94;;;18.17;100.00
49567;BME280;35472;50.514;30.448;2022-07-22T01:33:21;99658.50;;;17.77;100.00
49567;BME280;35472;50.514;30.448;2022-07-22T01:35:48;99659.81;;;17.80;100.00
49567;BME280;35472;50.514;30.448;2022-07-22T01:38:14;99665.00;;;17.90;100.00
49567;BME280;35472;50.514;30.448;2022-07-22T01:40:41;99664.03;;;17.86;100.00
49567;BME280;35472;50.514;30.448;2022-07-22T01:43:07;99666.31;;;17.66;100.00
49567;BME280;35472;50.514;30.448;2022-07-22T01:45:34;99666.16;;;17.80;100.00
49567;BME280;35472;50.514;30.448;2022-07-22T01:48:00;99665.84;;;17.73;100.00
49567;BME280;35472;50.514;30.448;2022-07-22T01:50:25;99665.28;;;17.97;100.00
49567;BME280;35472;50.514;30.448;2022-07-22T01:52:51;99653.97;;;17.64;100.00
49567;BME280;35472;50.514;30.448;2022-07-22T01:55:17;99667.13;;;17.58;100.00
49567;BME280;35472;50.514;30.448;2022-07-22T01:57:43;99668.09;;;17.80;100.00
49567;BME280;35472;50.514;30.448;2022-07-22T02:00:17;99667.47;;;17.74;100.00
49567;BME280;35472;50.514;30.448;2022-07-22T02:02:43;99669.75;;;17.72;100.00
49567;BME280;35472;50.514;30.448;2022-07-22T02:05:09;99662.41;;;17.67;100.00
49567;BME280;35472;50.514;30.448;2022-07-22T02:07:35;99668.22;;;17.92;100.00
49567;BME280;35472;50.514;30.448;2022-07-22T02:10:04;99673.13;;;17.69;100.00
49567;BME280;35472;50.514;30.448;2022-07-22T02:12:31;99678.81;;;17.55;100.00
49567;BME280;35472;50.514;30.448;2022-07-22T02:14:57;99679.59;;;17.64;100.00
49567;BME280;35472;50.514;30.448;2022-07-22T02:17:22;99667.28;;;17.62;100.00
49567;BME280;35472;50.514;30.448;2022-07-22T02:19:48;99674.63;;;17.49;100.00
49567;BME280;35472;50.514;30.448;2022-07-22T02:22:14;99683.53;;;17.46;100.00
49567;BME280;35472;50.514;30.448;2022-07-22T02:24:40;99685.50;;;17.37;100.00
49567;BME280;35472;50.514;30.448;2022-07-22T02:27:05;99692.66;;;17.29;100.00
49567;BME280;35472;50.514;30.448;2022-07-22T02:29:32;99692.94;;;17.45;100.00
49567;BME280;35472;50.514;30.448;2022-07-22T02:31:58;99687.44;;;17.36;100.00
49567;BME280;35472;50.514;30.448;2022-07-22T02:34:23;99688.69;;;17.65;100.00
49567;BME280;35472;50.514;30.448;2022-07-22T02:36:49;99700.41;;;17.62;100.00
49567;BME280;35472;50.514;30.448;2022-07-22T02:39:14;99701.38;;;17.49;100.00
49567;BME280;35472;50.514;30.448;2022-07-22T02:41:40;99696.31;;;17.68;100.00
49567;BME280;35472;50.514;30.448;2022-07-22T02:44:05;99700.22;;;17.84;100.00
49567;BME280;35472;50.514;30.448;2022-07-22T02:46:34;99689.69;;;17.60;100.00
49567;BME280;35472;50.514;30.448;2022-07-22T02:49:09;99694.22;;;17.65;100.00
49567;BME280;35472;50.514;30.448;2022-07-22T02:51:34;99694.88;;;17.53;100.00
49567;BME280;35472;50.514;30.448;2022-07-22T02:54:00;99702.50;;;17.39;100.00
49567;BME280;35472;50.514;30.448;2022-07-22T02:56:26;99703.00;;;17.15;100.00
49567;BME280;35472;50.514;30.448;2022-07-22T02:58:51;99705.44;;;17.34;100.00
49567;BME280;35472;50.514;30.448;2022-07-22T03:01:19;99699.13;;;17.42;100.00
49567;BME280;35472;50.514;30.448;2022-07-22T03:03:50;99706.72;;;17.80;100.00
49567;BME280;35472;50.514;30.448;2022-07-22T03:06:16;99706.66;;;18.06;100.00
49567;BME280;35472;50.514;30.448;2022-07-22T03:08:52;99699.56;;;18.34;100.00
49567;BME280;35472;50.514;30.448;2022-07-22T03:11:18;99703.78;;;18.40;100.00
49567;BME280;35472;50.514;30.448;2022-07-22T03:13:43;99703.56;;;18.84;100.00
49567;BME280;35472;50.514;30.448;2022-07-22T03:16:09;99698.88;;;19.05;100.00
49567;BME280;35472;50.514;30.448;2022-07-22T03:18:35;99697.19;;;19.13;100.00
49567;BME280;35472;50.514;30.448;2022-07-22T03:21:01;99717.34;;;19.55;100.00
49567;BME280;35472;50.514;30.448;2022-07-22T03:23:26;99721.66;;;19.98;100.00
49567;BME280;35472;50.514;30.448;2022-07-22T03:25:52;99716.19;;;20.34;98.14
49567;BME280;35472;50.514;30.448;2022-07-22T03:28:17;99715.50;;;20.86;94.72
49567;BME280;35472;50.514;30.448;2022-07-22T03:30:43;99717.78;;;21.61;87.48
49567;BME280;35472;50.514;30.448;2022-07-22T03:33:08;99717.28;;;21.72;87.83
49567;BME280;35472;50.514;30.448;2022-07-22T03:35:38;99714.47;;;22.28;85.97
49567;BME280;35472;50.514;30.448;2022-07-22T03:38:03;99719.81;;;20.59;95.06
49567;BME280;35472;50.514;30.448;2022-07-22T03:40:29;99714.84;;;20.53;96.43
49567;BME280;35472;50.514;30.448;2022-07-22T03:42:56;99716.41;;;20.17;97.11
49567;BME280;35472;50.514;30.448;2022-07-22T03:45:21;99703.66;;;19.38;100.00
49567;BME280;35472;50.514;30.448;2022-07-22T03:47:47;99720.13;;;19.88;100.00
49567;BME280;35472;50.514;30.448;2022-07-22T03:50:13;99716.63;;;20.12;100.00
49567;BME280;35472;50.514;30.448;2022-07-22T03:52:38;99714.81;;;20.28;98.51
49567;BME280;35472;50.514;30.448;2022-07-22T03:55:07;99720.47;;;21.58;89.81
49567;BME280;35472;50.514;30.448;2022-07-22T03:57:33;99729.91;;;21.97;86.82
49567;BME280;35472;50.514;30.448;2022-07-22T04:00:04;99725.22;;;22.29;84.40
49567;BME280;35472;50.514;30.448;2022-07-22T04:02:39;99723.28;;;22.96;80.22
49567;BME280;35472;50.514;30.448;2022-07-22T04:05:05;99732.72;;;22.13;84.01
49567;BME280;35472;50.514;30.448;2022-07-22T04:07:31;99740.50;;;21.79;85.62
49567;BME280;35472;50.514;30.448;2022-07-22T04:09:57;99732.16;;;24.38;73.16
49567;BME280;35472;50.514;30.448;2022-07-22T04:12:35;99732.56;;;25.42;68.74
49567;BME280;35472;50.514;30.448;2022-07-22T04:15:11;99723.22;;;22.77;78.22
49567;BME280;35472;50.514;30.448;2022-07-22T04:17:37;99732.69;;;24.24;73.45
49567;BME280;35472;50.514;30.448;2022-07-22T04:20:03;99731.94;;;23.11;78.34
49567;BME280;35472;50.514;30.448;2022-07-22T04:22:35;99730.34;;;23.84;74.23
49567;BME280;35472;50.514;30.448;2022-07-22T04:25:01;99729.94;;;24.47;71.40
49567;BME280;35472;50.514;30.448;2022-07-22T04:27:27;99730.59;;;24.17;72.62
49567;BME280;35472;50.514;30.448;2022-07-22T04:29:52;99732.34;;;24.06;73.61
49567;BME280;35472;50.514;30.448;2022-07-22T04:32:18;99739.91;;;23.47;74.91
49567;BME280;35472;50.514;30.448;2022-07-22T04:34:43;99732.44;;;23.32;75.52
49567;BME280;35472;50.514;30.448;2022-07-22T04:37:09;99733.09;;;24.45;72.36
49567;BME280;35472;50.514;30.448;2022-07-22T04:39:35;99746.53;;;25.12;68.94
49567;BME280;35472;50.514;30.448;2022-07-22T04:42:01;99741.81;;;24.93;68.68
49567;BME280;35472;50.514;30.448;2022-07-22T04:44:28;99742.59;;;25.47;65.93
49567;BME280;35472;50.514;30.448;2022-07-22T04:46:55;99737.72;;;25.36;65.95
49567;BME280;35472;50.514;30.448;2022-07-22T04:49:20;99741.16;;;23.50;73.18
49567;BME280;35472;50.514;30.448;2022-07-22T04:51:46;99751.31;;;25.41;65.45
49567;BME280;35472;50.514;30.448;2022-07-22T04:54:20;99742.09;;;27.45;58.61
49567;BME280;35472;50.514;30.448;2022-07-22T04:56:45;99749.38;;;26.09;61.70
49567;BME280;35472;50.514;30.448;2022-07-22T04:59:11;99747.84;;;26.56;61.39
49567;BME280;35472;50.514;30.448;2022-07-22T05:01:39;99732.75;;;26.64;60.11
49567;BME280;35472;50.514;30.448;2022-07-22T05:04:06;99741.63;;;28.48;53.68
49567;BME280;35472;50.514;30.448;2022-07-22T05:06:32;99744.22;;;27.04;57.98
49567;BME280;35472;50.514;30.448;2022-07-22T05:08:57;99747.03;;;27.76;55.44
49567;BME280;35472;50.514;30.448;2022-07-22T05:11:23;99746.31;;;28.08;53.43
49567;BME280;35472;50.514;30.448;2022-07-22T05:13:48;99756.47;;;28.95;52.28
49567;BME280;35472;50.514;30.448;2022-07-22T05:16:14;99753.16;;;27.20;55.37
49567;BME280;35472;50.514;30.448;2022-07-22T05:18:39;99753.91;;;27.93;53.90
49567;BME280;35472;50.514;30.448;2022-07-22T05:21:07;99763.72;;;26.45;58.48
49567;BME280;35472;50.514;30.448;2022-07-22T05:23:33;99761.09;;;27.91;52.31
49567;BME280;35472;50.514;30.448;2022-07-22T05:25:59;99769.88;;;26.24;58.27
49567;BME280;35472;50.514;30.448;2022-07-22T05:28:25;99763.63;;;28.28;52.77
49567;BME280;35472;50.514;30.448;2022-07-22T05:30:50;99767.72;;;26.44;57.07
49567;BME280;35472;50.514;30.448;2022-07-22T05:33:16;99753.69;;;27.47;54.87
49567;BME280;35472;50.514;30.448;2022-07-22T05:36:04;99765.16;;;26.72;57.32
49567;BME280;35472;50.514;30.448;2022-07-22T05:38:37;99761.78;;;26.12;60.19
49567;BME280;35472;50.514;30.448;2022-07-22T05:41:02;99758.97;;;26.97;55.84
49567;BME280;35472;50.514;30.448;2022-07-22T05:43:28;99758.44;;;26.81;55.86
49567;BME280;35472;50.514;30.448;2022-07-22T05:45:54;99766.84;;;29.23;51.31
49567;BME280;35472;50.514;30.448;2022-07-22T05:48:21;99770.56;;;26.95;54.62
49567;BME280;35472;50.514;30.448;2022-07-22T05:50:46;99768.16;;;26.97;55.11
49567;BME280;35472;50.514;30.448;2022-07-22T05:53:12;99761.72;;;27.52;54.68
49567;BME280;35472;50.514;30.448;2022-07-22T05:55:38;99757.38;;;26.96;55.11
49567;BME280;35472;50.514;30.448;2022-07-22T05:58:03;99755.25;;;28.53;50.91
49567;BME280;35472;50.514;30.448;2022-07-22T06:00:29;99759.66;;;28.86;49.33
49567;BME280;35472;50.514;30.448;2022-07-22T06:02:54;99750.78;;;29.37;47.32
49567;BME280;35472;50.514;30.448;2022-07-22T06:05:21;99748.03;;;30.18;45.43
49567;BME280;35472;50.514;30.448;2022-07-22T06:07:47;99760.09;;;28.95;47.85
49567;BME280;35472;50.514;30.448;2022-07-22T06:10:23;99761.66;;;28.53;48.05
49567;BME280;35472;50.514;30.448;2022-07-22T06:12:49;99759.59;;;29.43;46.57
49567;BME280;35472;50.514;30.448;2022-07-22T06:15:14;99766.03;;;30.31;43.28
49567;BME280;35472;50.514;30.448;2022-07-22T06:17:40;99759.56;;;28.08;47.90
49567;BME280;35472;50.514;30.448;2022-07-22T06:20:05;99758.19;;;27.62;49.24
49567;BME280;35472;50.514;30.448;2022-07-22T06:22:31;99754.06;;;27.42;49.79
49567;BME280;35472;50.514;30.448;2022-07-22T06:24:57;99757.06;;;26.60;51.27
49567;BME280;35472;50.514;30.448;2022-07-22T06:27:22;99762.72;;;26.27;51.34
49567;BME280;35472;50.514;30.448;2022-07-22T06:29:49;99759.53;;;26.65;50.67
49567;BME280;35472;50.514;30.448;2022-07-22T06:32:14;99749.38;;;26.50;51.39
49567;BME280;35472;50.514;30.448;2022-07-22T06:34:40;99760.72;;;27.92;47.46
49567;BME280;35472;50.514;30.448;2022-07-22T06:37:06;99768.28;;;26.60;47.57
49567;BME280;35472;50.514;30.448;2022-07-22T06:39:32;99762.44;;;26.39;48.51
49567;BME280;35472;50.514;30.448;2022-07-22T06:42:12;99768.09;;;27.45;47.98
49567;BME280;35472;50.514;30.448;2022-07-22T06:45:00;99777.09;;;27.83;46.29
49567;BME280;35472;50.514;30.448;2022-07-22T06:47:54;99770.16;;;25.78;52.14
49567;BME280;35472;50.514;30.448;2022-07-22T06:50:19;99772.97;;;26.12;51.80
49567;BME280;35472;50.514;30.448;2022-07-22T06:52:45;99774.44;;;25.72;52.72
49567;BME280;35472;50.514;30.448;2022-07-22T06:55:11;99781.59;;;26.00;51.92
49567;BME280;35472;50.514;30.448;2022-07-22T06:57:42;99781.13;;;26.28;50.95
49567;BME280;35472;50.514;30.448;2022-07-22T07:00:09;99774.16;;;26.96;49.67
49567;BME280;35472;50.514;30.448;2022-07-22T07:02:48;99779.66;;;28.27;46.18
49567;BME280;35472;50.514;30.448;2022-07-22T07:05:14;99770.88;;;29.18;44.99
49567;BME280;35472;50.514;30.448;2022-07-22T07:07:39;99767.59;;;27.25;48.05
49567;BME280;35472;50.514;30.448;2022-07-22T07:10:05;99781.50;;;26.67;47.43
49567;BME280;35472;50.514;30.448;2022-07-22T07:12:48;99783.97;;;28.00;44.29
49567;BME280;35472;50.514;30.448;2022-07-22T07:15:20;99774.03;;;28.31;44.70
49567;BME280;35472;50.514;30.448;2022-07-22T07:17:46;99780.81;;;27.32;46.05
49567;BME280;35472;50.514;30.448;2022-07-22T07:20:18;99782.47;;;26.04;49.41
49567;BME280;35472;50.514;30.448;2022-07-22T07:22:45;99779.44;;;25.03;51.30
49567;BME280;35472;50.514;30.448;2022-07-22T07:25:10;99777.34;;;26.94;47.46
49567;BME280;35472;50.514;30.448;2022-07-22T07:27:36;99768.88;;;26.87;46.59
49567;BME280;35472;50.514;30.448;2022-07-22T07:30:06;99792.06;;;26.43;47.71
49567;BME280;35472;50.514;30.448;2022-07-22T07:32:31;99779.81;;;27.03;46.21
49567;BME280;35472;50.514;30.448;2022-07-22T07:34:57;99788.69;;;26.64;47.65
49567;BME280;35472;50.514;30.448;2022-07-22T07:37:23;99782.38;;;26.74;46.85
49567;BME280;35472;50.514;30.448;2022-07-22T07:39:48;99782.50;;;28.92;43.14
49567;BME280;35472;50.514;30.448;2022-07-22T07:42:14;99771.88;;;26.61;45.58
49567;BME280;35472;50.514;30.448;2022-07-22T07:44:40;99795.56;;;26.00;45.91
49567;BME280;35472;50.514;30.448;2022-07-22T07:47:05;99789.50;;;25.34;47.70
49567;BME280;35472;50.514;30.448;2022-07-22T07:49:31;99787.97;;;26.34;44.95
49567;BME280;35472;50.514;30.448;2022-07-22T07:51:57;99794.06;;;28.29;42.72
49567;BME280;35472;50.514;30.448;2022-07-22T07:54:22;99789.88;;;26.26;46.71
49567;BME280;35472;50.514;30.448;2022-07-22T07:56:48;99790.59;;;26.57;46.92
49567;BME280;35472;50.514;30.448;2022-07-22T07:59:14;99785.50;;;27.14;47.07
49567;BME280;35472;50.514;30.448;2022-07-22T08:01:41;99794.59;;;27.66;46.48
49567;BME280;35472;50.514;30.448;2022-07-22T08:04:07;99779.88;;;27.07;46.59
49567;BME280;35472;50.514;30.448;2022-07-22T08:06:33;99786.97;;;25.52;49.32
49567;BME280;35472;50.514;30.448;2022-07-22T08:08:59;99804.59;;;25.56;50.39
49567;BME280;35472;50.514;30.448;2022-07-22T08:11:31;99791.50;;;25.33;51.24
49567;BME280;35472;50.514;30.448;2022-07-22T08:14:14;99801.75;;;25.26;51.67
49567;BME280;35472;50.514;30.448;2022-07-22T08:16:58;99794.31;;;26.68;49.67
49567;BME280;35472;50.514;30.448;2022-07-22T08:19:24;99789.78;;;25.25;51.57
49567;BME280;35472;50.514;30.448;2022-07-22T08:21:49;99793.00;;;25.27;51.95
49567;BME280;35472;50.514;30.448;2022-07-22T08:24:35;99814.59;;;25.87;48.98
49567;BME280;35472;50.514;30.448;2022-07-22T08:27:08;99799.69;;;24.73;52.91
49567;BME280;35472;50.514;30.448;2022-07-22T08:29:34;99796.47;;;25.74;51.32
49567;BME280;35472;50.514;30.448;2022-07-22T08:31:59;99798.31;;;24.86;51.30
49567;BME280;35472;50.514;30.448;2022-07-22T08:34:24;99787.25;;;25.43;49.07
49567;BME280;35472;50.514;30.448;2022-07-22T08:36:50;99798.97;;;25.26;50.34
49567;BME280;35472;50.514;30.448;2022-07-22T08:39:16;99794.19;;;25.03;48.60
49567;BME280;35472;50.514;30.448;2022-07-22T08:41:41;99799.50;;;25.65;47.15
49567;BME280;35472;50.514;30.448;2022-07-22T08:44:09;99803.78;;;25.55;47.05
49567;BME280;35472;50.514;30.448;2022-07-22T08:46:35;99809.91;;;26.32;45.48
49567;BME280;35472;50.514;30.448;2022-07-22T08:49:19;99814.09;;;26.11;44.07
49567;BME280;35472;50.514;30.448;2022-07-22T08:52:15;99810.72;;;24.89;47.57
49567;BME280;35472;50.514;30.448;2022-07-22T08:54:46;99813.91;;;25.67;46.65
49567;BME280;35472;50.514;30.448;2022-07-22T08:57:13;99808.53;;;25.81;45.70
49567;BME280;35472;50.514;30.448;2022-07-22T08:59:53;99820.53;;;25.29;45.75
49567;BME280;35472;50.514;30.448;2022-07-22T09:02:20;99831.97;;;25.47;45.81
49567;BME280;35472;50.514;30.448;2022-07-22T09:07:29;99811.69;;;25.50;46.71
49567;BME280;35472;50.514;30.448;2022-07-22T09:10:03;99816.75;;;24.45;47.97
49567;BME280;35472;50.514;30.448;2022-07-22T09:13:06;99820.16;;;25.57;45.89
49567;BME280;35472;50.514;30.448;2022-07-22T09:15:55;99811.91;;;25.67;44.94
49567;BME280;35472;50.514;30.448;2022-07-22T09:18:47;99802.28;;;25.08;47.11
49567;BME280;35472;50.514;30.448;2022-07-22T09:21:23;99813.91;;;25.37;47.21
49567;BME280;35472;50.514;30.448;2022-07-22T09:26:55;99807.44;;;25.33;45.76
49567;BME280;35472;50.514;30.448;2022-07-22T09:29:27;99813.22;;;25.74;43.34
49567;BME280;35472;50.514;30.448;2022-07-22T09:32:10;99819.13;;;25.42;44.55
49567;BME280;35472;50.514;30.448;2022-07-22T09:35:05;99811.75;;;26.17;44.41
49567;BME280;35472;50.514;30.448;2022-07-22T09:37:46;99825.25;;;26.45;43.82
49567;BME280;35472;50.514;30.448;2022-07-22T09:40:17;99811.13;;;25.97;43.25
49567;BME280;35472;50.514;30.448;2022-07-22T09:42:45;99817.81;;;25.89;44.51
49567;BME280;35472;50.514;30.448;2022-07-22T09:45:10;99818.84;;;26.41;44.25
49567;BME280;35472;50.514;30.448;2022-07-22T09:47:43;99818.25;;;25.91;45.70
49567;BME280;35472;50.514;30.448;2022-07-22T09:50:30;99812.63;;;25.61;45.87
49567;BME280;35472;50.514;30.448;2022-07-22T09:53:17;99818.00;;;26.03;44.62
49567;BME280;35472;50.514;30.448;2022-07-22T09:55:48;99818.84;;;25.77;44.79
49567;BME280;35472;50.514;30.448;2022-07-22T09:58:14;99823.84;;;25.91;44.19
49567;BME280;35472;50.514;30.448;2022-07-22T10:00:41;99825.22;;;25.78;45.39
49567;BME280;35472;50.514;30.448;2022-07-22T10:03:12;99829.63;;;26.09;43.77
49567;BME280;35472;50.514;30.448;2022-07-22T10:05:40;99835.91;;;25.72;43.10
49567;BME280;35472;50.514;30.448;2022-07-22T10:08:08;99827.41;;;25.08;43.34
49567;BME280;35472;50.514;30.448;2022-07-22T10:10:35;99821.50;;;25.66;42.64
49567;BME280;35472;50.514;30.448;2022-07-22T10:13:03;99830.09;;;25.84;43.70
49567;BME280;35472;50.514;30.448;2022-07-22T10:15:30;99834.00;;;25.23;44.28
49567;BME280;35472;50.514;30.448;2022-07-22T10:18:00;99823.13;;;25.98;42.80
49567;BME280;35472;50.514;30.448;2022-07-22T10:20:28;99836.00;;;25.49;43.54
49567;BME280;35472;50.514;30.448;2022-07-22T10:22:56;99845.56;;;25.75;44.25
49567;BME280;35472;50.514;30.448;2022-07-22T10:25:24;99799.56;;;24.89;46.14
49567;BME280;35472;50.514;30.448;2022-07-22T10:27:56;99822.94;;;24.81;45.91
49567;BME280;35472;50.514;30.448;2022-07-22T10:30:50;99836.22;;;25.37;44.75
49567;BME280;35472;50.514;30.448;2022-07-22T10:33:17;99838.03;;;25.79;43.44
49567;BME280;35472;50.514;30.448;2022-07-22T10:38:10;99823.00;;;25.60;43.81
49567;BME280;35472;50.514;30.448;2022-07-22T10:40:53;99839.75;;;25.60;43.70
49567;BME280;35472;50.514;30.448;2022-07-22T10:43:20;99830.97;;;25.88;43.55
49567;BME280;35472;50.514;30.448;2022-07-22T10:45:59;99812.91;;;25.79;43.21
49567;BME280;35472;50.514;30.448;2022-07-22T10:48:43;99835.66;;;25.81;43.52
49567;BME280;35472;50.514;30.448;2022-07-22T10:51:17;99838.78;;;26.06;42.98
49567;BME280;35472;50.514;30.448;2022-07-22T10:56:36;99840.19;;;26.26;42.15
49567;BME280;35472;50.514;30.448;2022-07-22T11:01:34;99842.22;;;26.63;42.10
49567;BME280;35472;50.514;30.448;2022-07-22T11:04:08;99836.59;;;27.04;41.09
49567;BME280;35472;50.514;30.448;2022-07-22T11:06:33;99834.47;;;26.90;41.07
49567;BME280;35472;50.514;30.448;2022-07-22T11:09:02;99833.19;;;25.76;42.42
49567;BME280;35472;50.514;30.448;2022-07-22T11:11:51;99844.91;;;26.18;42.42
49567;BME280;35472;50.514;30.448;2022-07-22T11:14:34;99839.91;;;26.35;41.59
49567;BME280;35472;50.514;30.448;2022-07-22T11:17:07;99853.63;;;25.80;41.95
49567;BME280;35472;50.514;30.448;2022-07-22T11:19:33;99835.13;;;26.02;41.99
49567;BME280;35472;50.514;30.448;2022-07-22T11:22:02;99850.56;;;26.22;41.57
49567;BME280;35472;50.514;30.448;2022-07-22T11:24:29;99837.84;;;26.28;41.63
49567;BME280;35472;50.514;30.448;2022-07-22T11:26:56;99831.69;;;26.45;41.48
49567;BME280;35472;50.514;30.448;2022-07-22T11:29:25;99830.72;;;26.75;41.01
49567;BME280;35472;50.514;30.448;2022-07-22T11:31:52;99832.09;;;26.48;40.59
49567;BME280;35472;50.514;30.448;2022-07-22T11:34:17;99826.03;;;27.34;39.82
49567;BME280;35472;50.514;30.448;2022-07-22T11:36:45;99826.75;;;27.24;40.45
49567;BME280;35472;50.514;30.448;2022-07-22T11:39:12;99839.88;;;26.31;41.22
49567;BME280;35472;50.514;30.448;2022-07-22T11:41:38;99825.47;;;27.07;40.43
49567;BME280;35472;50.514;30.448;2022-07-22T11:44:05;99836.50;;;26.93;40.32
49567;BME280;35472;50.514;30.448;2022-07-22T11:46:38;99840.56;;;26.21;39.63
49567;BME280;35472;50.514;30.448;2022-07-22T11:49:04;99822.69;;;26.66;38.66
49567;BME280;35472;50.514;30.448;2022-07-22T11:51:32;99809.72;;;26.48;40.40
49567;BME280;35472;50.514;30.448;2022-07-22T11:53:58;99833.19;;;26.39;40.46
49567;BME280;35472;50.514;30.448;2022-07-22T11:56:24;99826.34;;;26.74;39.02
49567;BME280;35472;50.514;30.448;2022-07-22T11:58:51;99835.75;;;26.99;39.21
49567;BME280;35472;50.514;30.448;2022-07-22T12:01:29;99830.69;;;27.12;38.22
49567;BME280;35472;50.514;30.448;2022-07-22T12:04:02;99828.63;;;26.61;38.45
49567;BME280;35472;50.514;30.448;2022-07-22T12:06:28;99811.63;;;27.32;38.54
49567;BME280;35472;50.514;30.448;2022-07-22T12:08:56;99821.38;;;27.01;40.15
49567;BME280;35472;50.514;30.448;2022-07-22T12:11:27;99820.16;;;27.50;39.42
49567;BME280;35472;50.514;30.448;2022-07-22T12:13:53;99815.50;;;27.17;39.96
49567;BME280;35472;50.514;30.448;2022-07-22T12:16:27;99819.59;;;27.30;38.00
49567;BME280;35472;50.514;30.448;2022-07-22T12:19:01;99814.03;;;27.34;37.59
49567;BME280;35472;50.514;30.448;2022-07-22T12:21:30;99823.59;;;26.81;38.31
49567;BME280;35472;50.514;30.448;2022-07-22T12:23:57;99821.31;;;26.50;39.59
49567;BME280;35472;50.514;30.448;2022-07-22T12:26:48;99816.53;;;26.98;38.02
49567;BME280;35472;50.514;30.448;2022-07-22T12:31:53;99832.09;;;27.40;37.67
49567;BME280;35472;50.514;30.448;2022-07-22T12:37:17;99810.84;;;26.43;36.77
49567;BME280;35472;50.514;30.448;2022-07-22T12:40:05;99814.06;;;27.37;36.31
49567;BME280;35472;50.514;30.448;2022-07-22T12:42:46;99803.75;;;27.52;37.44
49567;BME280;35472;50.514;30.448;2022-07-22T12:45:14;99808.88;;;28.23;36.49
49567;BME280;35472;50.514;30.448;2022-07-22T12:47:50;99804.34;;;26.72;39.76
49567;BME280;35472;50.514;30.448;2022-07-22T12:52:48;99795.97;;;27.24;39.98
49567;BME280;35472;50.514;30.448;2022-07-22T12:55:13;99792.75;;;26.74;41.09
49567;BME280;35472;50.514;30.448;2022-07-22T12:57:39;99801.66;;;26.87;40.88
49567;BME280;35472;50.514;30.448;2022-07-22T13:00:05;99799.06;;;27.08;40.22
49567;BME280;35472;50.514;30.448;2022-07-22T13:02:31;99799.84;;;27.71;38.97
49567;BME280;35472;50.514;30.448;2022-07-22T13:04:56;99806.94;;;27.50;39.06
49567;BME280;35472;50.514;30.448;2022-07-22T13:07:21;99804.09;;;26.92;39.90
49567;BME280;35472;50.514;30.448;2022-07-22T13:09:47;99789.88;;;27.11;39.52
49567;BME280;35472;50.514;30.448;2022-07-22T13:12:12;99801.47;;;27.72;39.49
49567;BME280;35472;50.514;30.448;2022-07-22T13:14:37;99792.78;;;28.02;38.51
49567;BME280;35472;50.514;30.448;2022-07-22T13:17:03;99812.63;;;27.68;38.76